sensor_id;sensor_type;location;lat;lon;timestamp;P1;durP1;ratioP1;P2;durP2;ratioP2
28545;SDS011;15749;49.606;8.738;2022-09-09T00:00:49;1.00;;;0.60;;
28545;SDS011;15749;49.606;8.738;2022-09-09T00:03:43;1.63;;;0.80;;
28545;SDS011;15749;49.606;8.738;2022-09-09T00:06:42;0.70;;;0.57;;
28545;SDS011;15749;49.606;8.738;2022-09-09T00:09:35;3.30;;;1.43;;
28545;SDS011;15749;49.606;8.738;2022-09-09T00:12:32;1.50;;;0.83;;
28545;SDS011;15749;49.606;8.738;2022-09-09T00:15:26;1.30;;;0.80;;
28545;SDS011;15749;49.606;8.738;2022-09-09T00:18:25;1.73;;;0.80;;
28545;SDS011;15749;49.606;8.738;2022-09-09T00:21:32;0.90;;;0.70;;
28545;SDS011;15749;49.606;8.738;2022-09-09T00:24:26;1.33;;;0.70;;
28545;SDS011;15749;49.606;8.738;2022-09-09T00:27:23;1.13;;;0.53;;
28545;SDS011;15749;49.606;8.738;2022-09-09T00:30:20;1.00;;;0.70;;
28545;SDS011;15749;49.606;8.738;2022-09-09T00:33:11;1.33;;;0.70;;
28545;SDS011;15749;49.606;8.738;2022-09-09T00:36:03;2.20;;;0.83;;
28545;SDS011;15749;49.606;8.738;2022-09-09T00:38:59;1.43;;;0.80;;
28545;SDS011;15749;49.606;8.738;2022-09-09T00:41:50;2.10;;;0.87;;
28545;SDS011;15749;49.606;8.738;2022-09-09T00:45:01;1.83;;;1.10;;
28545;SDS011;15749;49.606;8.738;2022-09-09T00:48:10;0.67;;;0.60;;
28545;SDS011;15749;49.606;8.738;2022-09-09T00:50:59;1.63;;;0.80;;
28545;SDS011;15749;49.606;8.738;2022-09-09T00:54:10;1.20;;;0.80;;
28545;SDS011;15749;49.606;8.738;2022-09-09T00:57:14;3.03;;;0.90;;
28545;SDS011;15749;49.606;8.738;2022-09-09T01:00:18;4.87;;;1.00;;
28545;SDS011;15749;49.606;8.738;2022-09-09T01:03:19;1.43;;;0.73;;
28545;SDS011;15749;49.606;8.738;2022-09-09T01:06:20;2.73;;;0.70;;
28545;SDS011;15749;49.606;8.738;2022-09-09T01:09:17;0.63;;;0.63;;
28545;SDS011;15749;49.606;8.738;2022-09-09T01:12:11;0.57;;;0.57;;
28545;SDS011;15749;49.606;8.738;2022-09-09T01:15:09;0.60;;;0.60;;
28545;SDS011;15749;49.606;8.738;2022-09-09T01:18:06;0.73;;;0.60;;
28545;SDS011;15749;49.606;8.738;2022-09-09T01:21:03;3.57;;;0.97;;
28545;SDS011;15749;49.606;8.738;2022-09-09T01:24:08;1.57;;;0.87;;
28545;SDS011;15749;49.606;8.738;2022-09-09T01:27:33;3.57;;;1.10;;
28545;SDS011;15749;49.606;8.738;2022-09-09T01:30:23;1.87;;;1.30;;
28545;SDS011;15749;49.606;8.738;2022-09-09T01:33:14;2.50;;;1.30;;
28545;SDS011;15749;49.606;8.738;2022-09-09T01:36:05;1.93;;;1.53;;
28545;SDS011;15749;49.606;8.738;2022-09-09T01:39:04;3.40;;;1.50;;
28545;SDS011;15749;49.606;8.738;2022-09-09T01:41:52;5.30;;;1.10;;
28545;SDS011;15749;49.606;8.738;2022-09-09T01:44:44;2.43;;;1.07;;
28545;SDS011;15749;49.606;8.738;2022-09-09T01:47:32;1.40;;;0.50;;
28545;SDS011;15749;49.606;8.738;2022-09-09T01:50:32;3.40;;;0.70;;
28545;SDS011;15749;49.606;8.738;2022-09-09T01:53:21;1.53;;;0.80;;
28545;SDS011;15749;49.606;8.738;2022-09-09T01:56:12;1.80;;;0.80;;
28545;SDS011;15749;49.606;8.738;2022-09-09T01:59:24;0.97;;;0.80;;
28545;SDS011;15749;49.606;8.738;2022-09-09T02:02:29;1.70;;;1.07;;
28545;SDS011;15749;49.606;8.738;2022-09-09T02:05:31;1.83;;;0.90;;
28545;SDS011;15749;49.606;8.738;2022-09-09T02:08:36;1.20;;;0.90;;
28545;SDS011;15749;49.606;8.738;2022-09-09T02:11:29;1.47;;;1.10;;
28545;SDS011;15749;49.606;8.738;2022-09-09T02:14:25;1.47;;;0.90;;
28545;SDS011;15749;49.606;8.738;2022-09-09T02:17:19;4.30;;;1.20;;
28545;SDS011;15749;49.606;8.738;2022-09-09T02:20:19;1.30;;;0.80;;
28545;SDS011;15749;49.606;8.738;2022-09-09T02:23:15;1.10;;;0.80;;
28545;SDS011;15749;49.606;8.738;2022-09-09T02:26:07;1.23;;;0.70;;
28545;SDS011;15749;49.606;8.738;2022-09-09T02:28:59;1.43;;;0.80;;
28545;SDS011;15749;49.606;8.738;2022-09-09T02:31:50;1.43;;;0.80;;
28545;SDS011;15749;49.606;8.738;2022-09-09T02:34:45;1.47;;;0.63;;
28545;SDS011;15749;49.606;8.738;2022-09-09T02:37:39;2.23;;;0.70;;
28545;SDS011;15749;49.606;8.738;2022-09-09T02:40:32;1.73;;;0.70;;
28545;SDS011;15749;49.606;8.738;2022-09-09T02:43:21;1.43;;;0.77;;
28545;SDS011;15749;49.606;8.738;2022-09-09T02:46:15;1.80;;;0.77;;
28545;SDS011;15749;49.606;8.738;2022-09-09T02:49:21;3.23;;;0.87;;
28545;SDS011;15749;49.606;8.738;2022-09-09T02:52:17;1.93;;;0.70;;
28545;SDS011;15749;49.606;8.738;2022-09-09T02:55:11;1.73;;;0.73;;
28545;SDS011;15749;49.606;8.738;2022-09-09T02:58:10;2.47;;;0.60;;
28545;SDS011;15749;49.606;8.738;2022-09-09T03:01:10;4.33;;;1.00;;
28545;SDS011;15749;49.606;8.738;2022-09-09T03:03:59;1.50;;;0.70;;
28545;SDS011;15749;49.606;8.738;2022-09-09T03:06:48;1.63;;;0.70;;
28545;SDS011;15749;49.606;8.738;2022-09-09T03:09:38;1.63;;;0.70;;
28545;SDS011;15749;49.606;8.738;2022-09-09T03:12:28;1.83;;;0.70;;
28545;SDS011;15749;49.606;8.738;2022-09-09T03:15:16;2.00;;;0.70;;
28545;SDS011;15749;49.606;8.738;2022-09-09T03:18:05;1.97;;;0.77;;
28545;SDS011;15749;49.606;8.738;2022-09-09T03:20:52;2.67;;;0.83;;
28545;SDS011;15749;49.606;8.738;2022-09-09T03:23:41;1.70;;;0.80;;
28545;SDS011;15749;49.606;8.738;2022-09-09T03:26:30;2.37;;;0.60;;
28545;SDS011;15749;49.606;8.738;2022-09-09T03:29:20;4.30;;;0.67;;
28545;SDS011;15749;49.606;8.738;2022-09-09T03:32:11;3.33;;;0.90;;
28545;SDS011;15749;49.606;8.738;2022-09-09T03:35:03;1.47;;;0.97;;
28545;SDS011;15749;49.606;8.738;2022-09-09T03:37:52;2.33;;;0.83;;
28545;SDS011;15749;49.606;8.738;2022-09-09T03:40:47;2.03;;;0.87;;
28545;SDS011;15749;49.606;8.738;2022-09-09T03:43:36;2.70;;;0.80;;
28545;SDS011;15749;49.606;8.738;2022-09-09T03:46:26;1.77;;;0.80;;
28545;SDS011;15749;49.606;8.738;2022-09-09T03:49:14;1.83;;;0.70;;
28545;SDS011;15749;49.606;8.738;2022-09-09T03:52:02;2.30;;;0.60;;
28545;SDS011;15749;49.606;8.738;2022-09-09T03:54:50;1.80;;;1.03;;
28545;SDS011;15749;49.606;8.738;2022-09-09T03:57:39;2.20;;;0.70;;
28545;SDS011;15749;49.606;8.738;2022-09-09T04:00:28;1.47;;;0.70;;
28545;SDS011;15749;49.606;8.738;2022-09-09T04:03:18;2.83;;;0.80;;
28545;SDS011;15749;49.606;8.738;2022-09-09T04:06:12;2.77;;;0.70;;
28545;SDS011;15749;49.606;8.738;2022-09-09T04:09:04;2.30;;;0.70;;
28545;SDS011;15749;49.606;8.738;2022-09-09T04:11:53;1.27;;;0.77;;
28545;SDS011;15749;49.606;8.738;2022-09-09T04:14:41;1.37;;;0.60;;
28545;SDS011;15749;49.606;8.738;2022-09-09T04:17:29;1.93;;;0.90;;
28545;SDS011;15749;49.606;8.738;2022-09-09T04:20:19;1.87;;;0.63;;
28545;SDS011;15749;49.606;8.738;2022-09-09T04:23:07;2.10;;;0.70;;
28545;SDS011;15749;49.606;8.738;2022-09-09T04:25:56;1.97;;;0.70;;
28545;SDS011;15749;49.606;8.738;2022-09-09T04:29:01;1.17;;;0.50;;
28545;SDS011;15749;49.606;8.738;2022-09-09T04:31:50;0.63;;;0.40;;
28545;SDS011;15749;49.606;8.738;2022-09-09T04:34:38;1.00;;;0.50;;
28545;SDS011;15749;49.606;8.738;2022-09-09T04:37:29;1.20;;;0.60;;
28545;SDS011;15749;49.606;8.738;2022-09-09T04:40:18;2.17;;;0.60;;
28545;SDS011;15749;49.606;8.738;2022-09-09T04:43:07;1.40;;;0.60;;
28545;SDS011;15749;49.606;8.738;2022-09-09T04:46:00;0.83;;;0.60;;
28545;SDS011;15749;49.606;8.738;2022-09-09T04:48:48;1.23;;;0.70;;
28545;SDS011;15749;49.606;8.738;2022-09-09T04:51:37;3.67;;;1.33;;
28545;SDS011;15749;49.606;8.738;2022-09-09T04:54:25;1.23;;;0.43;;
28545;SDS011;15749;49.606;8.738;2022-09-09T04:57:13;2.93;;;0.50;;
28545;SDS011;15749;49.606;8.738;2022-09-09T05:00:05;1.37;;;0.40;;
28545;SDS011;15749;49.606;8.738;2022-09-09T05:02:57;1.53;;;0.60;;
28545;SDS011;15749;49.606;8.738;2022-09-09T05:05:44;1.23;;;0.40;;
28545;SDS011;15749;49.606;8.738;2022-09-09T05:08:32;0.63;;;0.40;;
28545;SDS011;15749;49.606;8.738;2022-09-09T05:11:23;1.67;;;0.50;;
28545;SDS011;15749;49.606;8.738;2022-09-09T05:14:17;1.83;;;0.60;;
28545;SDS011;15749;49.606;8.738;2022-09-09T05:17:04;2.23;;;0.80;;
28545;SDS011;15749;49.606;8.738;2022-09-09T05:19:54;1.53;;;0.50;;
28545;SDS011;15749;49.606;8.738;2022-09-09T05:22:43;1.30;;;0.40;;
28545;SDS011;15749;49.606;8.738;2022-09-09T05:25:30;1.40;;;0.60;;
28545;SDS011;15749;49.606;8.738;2022-09-09T05:28:19;1.10;;;0.60;;
28545;SDS011;15749;49.606;8.738;2022-09-09T05:31:07;1.67;;;0.60;;
28545;SDS011;15749;49.606;8.738;2022-09-09T05:33:58;3.63;;;0.83;;
28545;SDS011;15749;49.606;8.738;2022-09-09T05:36:46;2.13;;;0.80;;
28545;SDS011;15749;49.606;8.738;2022-09-09T05:39:34;1.50;;;0.50;;
28545;SDS011;15749;49.606;8.738;2022-09-09T05:42:23;3.07;;;0.60;;
28545;SDS011;15749;49.606;8.738;2022-09-09T05:45:13;1.17;;;0.47;;
28545;SDS011;15749;49.606;8.738;2022-09-09T05:48:01;1.17;;;0.47;;
28545;SDS011;15749;49.606;8.738;2022-09-09T05:50:52;2.60;;;0.50;;
28545;SDS011;15749;49.606;8.738;2022-09-09T05:53:41;0.70;;;0.43;;
28545;SDS011;15749;49.606;8.738;2022-09-09T05:56:29;2.23;;;0.60;;
28545;SDS011;15749;49.606;8.738;2022-09-09T05:59:18;2.47;;;0.57;;
28545;SDS011;15749;49.606;8.738;2022-09-09T06:02:09;1.27;;;0.60;;
28545;SDS011;15749;49.606;8.738;2022-09-09T06:04:57;1.20;;;0.50;;
28545;SDS011;15749;49.606;8.738;2022-09-09T06:07:46;1.20;;;0.60;;
28545;SDS011;15749;49.606;8.738;2022-09-09T06:10:33;2.77;;;0.83;;
28545;SDS011;15749;49.606;8.738;2022-09-09T06:13:21;1.23;;;0.60;;
28545;SDS011;15749;49.606;8.738;2022-09-09T06:16:09;2.40;;;0.70;;
28545;SDS011;15749;49.606;8.738;2022-09-09T06:19:02;1.60;;;0.60;;
28545;SDS011;15749;49.606;8.738;2022-09-09T06:21:50;2.93;;;0.70;;
28545;SDS011;15749;49.606;8.738;2022-09-09T06:24:37;3.67;;;0.90;;
28545;SDS011;15749;49.606;8.738;2022-09-09T06:27:26;1.23;;;0.50;;
28545;SDS011;15749;49.606;8.738;2022-09-09T06:30:14;1.80;;;0.80;;
28545;SDS011;15749;49.606;8.738;2022-09-09T06:33:03;1.10;;;0.43;;
28545;SDS011;15749;49.606;8.738;2022-09-09T06:35:52;2.50;;;0.63;;
28545;SDS011;15749;49.606;8.738;2022-09-09T06:38:43;3.33;;;0.87;;
28545;SDS011;15749;49.606;8.738;2022-09-09T06:41:32;2.03;;;0.57;;
28545;SDS011;15749;49.606;8.738;2022-09-09T06:44:21;2.63;;;0.50;;
28545;SDS011;15749;49.606;8.738;2022-09-09T06:47:08;1.47;;;0.57;;
28545;SDS011;15749;49.606;8.738;2022-09-09T06:49:58;3.40;;;0.77;;
28545;SDS011;15749;49.606;8.738;2022-09-09T06:52:47;1.37;;;0.70;;
28545;SDS011;15749;49.606;8.738;2022-09-09T06:55:36;2.00;;;0.80;;
28545;SDS011;15749;49.606;8.738;2022-09-09T06:58:26;3.90;;;1.00;;
28545;SDS011;15749;49.606;8.738;2022-09-09T07:01:16;2.37;;;0.60;;
28545;SDS011;15749;49.606;8.738;2022-09-09T07:04:05;1.63;;;0.60;;
28545;SDS011;15749;49.606;8.738;2022-09-09T07:06:54;3.30;;;0.87;;
28545;SDS011;15749;49.606;8.738;2022-09-09T07:09:45;3.50;;;0.97;;
28545;SDS011;15749;49.606;8.738;2022-09-09T07:12:32;4.23;;;0.80;;
28545;SDS011;15749;49.606;8.738;2022-09-09T07:15:20;3.27;;;0.80;;
28545;SDS011;15749;49.606;8.738;2022-09-09T07:18:08;4.30;;;0.80;;
28545;SDS011;15749;49.606;8.738;2022-09-09T07:20:56;2.93;;;0.77;;
28545;SDS011;15749;49.606;8.738;2022-09-09T07:23:44;1.30;;;0.77;;
28545;SDS011;15749;49.606;8.738;2022-09-09T07:26:33;3.37;;;1.20;;
28545;SDS011;15749;49.606;8.738;2022-09-09T07:29:21;4.00;;;0.70;;
28545;SDS011;15749;49.606;8.738;2022-09-09T07:32:09;2.27;;;0.70;;
28545;SDS011;15749;49.606;8.738;2022-09-09T07:34:57;1.63;;;0.80;;
28545;SDS011;15749;49.606;8.738;2022-09-09T07:37:46;1.73;;;0.70;;
28545;SDS011;15749;49.606;8.738;2022-09-09T07:40:37;3.70;;;0.77;;
28545;SDS011;15749;49.606;8.738;2022-09-09T07:43:26;1.60;;;0.80;;
28545;SDS011;15749;49.606;8.738;2022-09-09T07:46:15;2.90;;;0.83;;
28545;SDS011;15749;49.606;8.738;2022-09-09T07:49:05;4.97;;;1.07;;
28545;SDS011;15749;49.606;8.738;2022-09-09T07:51:54;2.40;;;0.97;;
28545;SDS011;15749;49.606;8.738;2022-09-09T07:54:42;2.63;;;1.00;;
28545;SDS011;15749;49.606;8.738;2022-09-09T07:57:31;3.23;;;1.10;;
28545;SDS011;15749;49.606;8.738;2022-09-09T08:00:21;2.23;;;0.77;;
28545;SDS011;15749;49.606;8.738;2022-09-09T08:03:13;2.50;;;0.93;;
28545;SDS011;15749;49.606;8.738;2022-09-09T08:06:01;2.10;;;0.70;;
28545;SDS011;15749;49.606;8.738;2022-09-09T08:08:50;2.10;;;0.77;;
28545;SDS011;15749;49.606;8.738;2022-09-09T08:11:39;3.00;;;0.63;;
28545;SDS011;15749;49.606;8.738;2022-09-09T08:14:27;1.97;;;0.67;;
28545;SDS011;15749;49.606;8.738;2022-09-09T08:17:17;2.47;;;0.80;;
28545;SDS011;15749;49.606;8.738;2022-09-09T08:20:05;2.70;;;0.90;;
28545;SDS011;15749;49.606;8.738;2022-09-09T08:22:54;2.93;;;1.17;;
28545;SDS011;15749;49.606;8.738;2022-09-09T08:25:42;3.33;;;0.90;;
28545;SDS011;15749;49.606;8.738;2022-09-09T08:28:32;2.90;;;0.93;;
28545;SDS011;15749;49.606;8.738;2022-09-09T08:31:20;3.33;;;0.70;;
28545;SDS011;15749;49.606;8.738;2022-09-09T08:34:16;5.17;;;1.10;;
28545;SDS011;15749;49.606;8.738;2022-09-09T08:37:07;5.30;;;1.03;;
28545;SDS011;15749;49.606;8.738;2022-09-09T08:39:58;3.57;;;1.23;;
28545;SDS011;15749;49.606;8.738;2022-09-09T08:42:48;5.27;;;1.00;;
28545;SDS011;15749;49.606;8.738;2022-09-09T08:45:42;5.43;;;1.00;;
28545;SDS011;15749;49.606;8.738;2022-09-09T08:48:43;3.10;;;0.93;;
28545;SDS011;15749;49.606;8.738;2022-09-09T08:51:41;4.63;;;1.23;;
28545;SDS011;15749;49.606;8.738;2022-09-09T08:54:33;2.20;;;0.90;;
28545;SDS011;15749;49.606;8.738;2022-09-09T08:57:37;3.10;;;1.00;;
28545;SDS011;15749;49.606;8.738;2022-09-09T09:00:26;3.20;;;1.00;;
28545;SDS011;15749;49.606;8.738;2022-09-09T09:03:22;2.70;;;0.80;;
28545;SDS011;15749;49.606;8.738;2022-09-09T09:06:23;3.07;;;0.80;;
28545;SDS011;15749;49.606;8.738;2022-09-09T09:09:30;3.17;;;0.93;;
28545;SDS011;15749;49.606;8.738;2022-09-09T09:12:29;3.33;;;0.93;;
28545;SDS011;15749;49.606;8.738;2022-09-09T09:15:23;3.53;;;1.10;;
28545;SDS011;15749;49.606;8.738;2022-09-09T09:18:17;2.97;;;1.00;;
28545;SDS011;15749;49.606;8.738;2022-09-09T09:21:06;3.57;;;0.83;;
28545;SDS011;15749;49.606;8.738;2022-09-09T09:24:01;3.27;;;0.90;;
28545;SDS011;15749;49.606;8.738;2022-09-09T09:26:55;2.37;;;0.87;;
28545;SDS011;15749;49.606;8.738;2022-09-09T09:29:43;3.57;;;0.83;;
28545;SDS011;15749;49.606;8.738;2022-09-09T09:32:53;3.03;;;1.17;;
28545;SDS011;15749;49.606;8.738;2022-09-09T09:35:48;4.10;;;1.10;;
28545;SDS011;15749;49.606;8.738;2022-09-09T09:38:38;4.30;;;1.07;;
28545;SDS011;15749;49.606;8.738;2022-09-09T09:41:47;3.70;;;1.17;;
28545;SDS011;15749;49.606;8.738;2022-09-09T09:44:37;4.07;;;1.10;;
28545;SDS011;15749;49.606;8.738;2022-09-09T09:47:30;4.90;;;1.27;;
28545;SDS011;15749;49.606;8.738;2022-09-09T09:50:29;3.60;;;1.03;;
28545;SDS011;15749;49.606;8.738;2022-09-09T09:53:22;2.73;;;0.90;;
28545;SDS011;15749;49.606;8.738;2022-09-09T09:56:13;2.03;;;0.83;;
28545;SDS011;15749;49.606;8.738;2022-09-09T09:59:02;3.17;;;1.10;;
28545;SDS011;15749;49.606;8.738;2022-09-09T10:02:17;3.30;;;0.97;;
28545;SDS011;15749;49.606;8.738;2022-09-09T10:05:16;2.97;;;1.00;;
28545;SDS011;15749;49.606;8.738;2022-09-09T10:08:15;2.97;;;0.90;;
28545;SDS011;15749;49.606;8.738;2022-09-09T10:11:09;3.40;;;1.33;;
28545;SDS011;15749;49.606;8.738;2022-09-09T10:14:15;7.43;;;1.33;;
28545;SDS011;15749;49.606;8.738;2022-09-09T10:17:11;4.73;;;1.17;;
28545;SDS011;15749;49.606;8.738;2022-09-09T10:20:14;3.37;;;0.90;;
28545;SDS011;15749;49.606;8.738;2022-09-09T10:23:17;3.77;;;1.00;;
28545;SDS011;15749;49.606;8.738;2022-09-09T10:26:24;2.93;;;1.20;;
28545;SDS011;15749;49.606;8.738;2022-09-09T10:29:28;2.10;;;0.80;;
28545;SDS011;15749;49.606;8.738;2022-09-09T10:32:35;2.20;;;1.07;;
28545;SDS011;15749;49.606;8.738;2022-09-09T10:35:33;2.97;;;0.90;;
28545;SDS011;15749;49.606;8.738;2022-09-09T10:38:27;3.57;;;1.20;;
28545;SDS011;15749;49.606;8.738;2022-09-09T10:41:35;3.53;;;0.77;;
28545;SDS011;15749;49.606;8.738;2022-09-09T10:44:37;2.93;;;0.93;;
28545;SDS011;15749;49.606;8.738;2022-09-09T10:47:49;2.30;;;1.00;;
28545;SDS011;15749;49.606;8.738;2022-09-09T10:51:01;2.30;;;0.80;;
28545;SDS011;15749;49.606;8.738;2022-09-09T10:54:13;1.30;;;0.60;;
28545;SDS011;15749;49.606;8.738;2022-09-09T10:57:24;3.43;;;0.70;;
28545;SDS011;15749;49.606;8.738;2022-09-09T11:00:18;3.00;;;0.70;;
28545;SDS011;15749;49.606;8.738;2022-09-09T11:03:13;1.57;;;0.60;;
28545;SDS011;15749;49.606;8.738;2022-09-09T11:06:09;1.77;;;0.50;;
28545;SDS011;15749;49.606;8.738;2022-09-09T11:09:02;2.60;;;0.80;;
28545;SDS011;15749;49.606;8.738;2022-09-09T11:11:53;2.20;;;0.90;;
28545;SDS011;15749;49.606;8.738;2022-09-09T11:14:43;2.43;;;0.80;;
28545;SDS011;15749;49.606;8.738;2022-09-09T11:17:36;4.27;;;1.00;;
28545;SDS011;15749;49.606;8.738;2022-09-09T11:20:30;2.73;;;0.90;;
28545;SDS011;15749;49.606;8.738;2022-09-09T11:23:19;3.80;;;1.03;;
28545;SDS011;15749;49.606;8.738;2022-09-09T11:26:15;5.63;;;1.00;;
28545;SDS011;15749;49.606;8.738;2022-09-09T11:29:23;2.63;;;0.90;;
28545;SDS011;15749;49.606;8.738;2022-09-09T11:32:58;2.27;;;0.90;;
28545;SDS011;15749;49.606;8.738;2022-09-09T11:36:38;2.00;;;0.60;;
28545;SDS011;15749;49.606;8.738;2022-09-09T11:43:08;2.93;;;0.87;;
28545;SDS011;15749;49.606;8.738;2022-09-09T11:45:59;2.07;;;0.60;;
28545;SDS011;15749;49.606;8.738;2022-09-09T11:48:57;2.27;;;1.00;;
28545;SDS011;15749;49.606;8.738;2022-09-09T11:51:50;2.33;;;0.70;;
28545;SDS011;15749;49.606;8.738;2022-09-09T11:54:44;3.10;;;0.83;;
28545;SDS011;15749;49.606;8.738;2022-09-09T11:57:35;3.40;;;0.80;;
28545;SDS011;15749;49.606;8.738;2022-09-09T12:03:40;3.67;;;0.90;;
28545;SDS011;15749;49.606;8.738;2022-09-09T12:06:32;1.93;;;0.80;;
28545;SDS011;15749;49.606;8.738;2022-09-09T12:09:37;3.90;;;0.90;;
28545;SDS011;15749;49.606;8.738;2022-09-09T12:12:34;3.50;;;0.82;;
28545;SDS011;15749;49.606;8.738;2022-09-09T12:15:28;2.78;;;0.77;;
28545;SDS011;15749;49.606;8.738;2022-09-09T12:18:20;4.47;;;1.00;;
28545;SDS011;15749;49.606;8.738;2022-09-09T12:21:13;4.43;;;0.87;;
28545;SDS011;15749;49.606;8.738;2022-09-09T12:24:13;4.20;;;0.90;;
28545;SDS011;15749;49.606;8.738;2022-09-09T12:27:11;2.33;;;0.80;;
28545;SDS011;15749;49.606;8.738;2022-09-09T12:30:07;3.27;;;0.93;;
28545;SDS011;15749;49.606;8.738;2022-09-09T12:33:01;3.37;;;0.83;;
28545;SDS011;15749;49.606;8.738;2022-09-09T12:35:56;3.23;;;0.93;;
28545;SDS011;15749;49.606;8.738;2022-09-09T12:38:45;4.53;;;1.27;;
28545;SDS011;15749;49.606;8.738;2022-09-09T12:41:33;3.03;;;0.90;;
28545;SDS011;15749;49.606;8.738;2022-09-09T12:44:22;2.47;;;0.90;;
28545;SDS011;15749;49.606;8.738;2022-09-09T12:47:11;4.77;;;0.97;;
28545;SDS011;15749;49.606;8.738;2022-09-09T12:50:00;8.87;;;1.60;;
28545;SDS011;15749;49.606;8.738;2022-09-09T12:52:48;3.97;;;0.90;;
28545;SDS011;15749;49.606;8.738;2022-09-09T12:55:48;2.07;;;0.70;;
28545;SDS011;15749;49.606;8.738;2022-09-09T12:58:37;2.60;;;0.70;;
28545;SDS011;15749;49.606;8.738;2022-09-09T13:01:28;3.73;;;0.70;;
28545;SDS011;15749;49.606;8.738;2022-09-09T13:04:19;2.37;;;0.60;;
28545;SDS011;15749;49.606;8.738;2022-09-09T13:07:08;2.97;;;0.43;;
28545;SDS011;15749;49.606;8.738;2022-09-09T13:09:57;1.97;;;0.77;;
28545;SDS011;15749;49.606;8.738;2022-09-09T13:12:45;1.20;;;0.40;;
28545;SDS011;15749;49.606;8.738;2022-09-09T13:15:33;1.97;;;0.70;;
28545;SDS011;15749;49.606;8.738;2022-09-09T13:18:23;1.40;;;0.60;;
28545;SDS011;15749;49.606;8.738;2022-09-09T13:21:13;1.93;;;0.70;;
28545;SDS011;15749;49.606;8.738;2022-09-09T13:24:01;2.33;;;0.80;;
28545;SDS011;15749;49.606;8.738;2022-09-09T13:26:53;3.90;;;0.60;;
28545;SDS011;15749;49.606;8.738;2022-09-09T13:29:50;2.17;;;0.70;;
28545;SDS011;15749;49.606;8.738;2022-09-09T13:32:41;1.43;;;0.50;;
28545;SDS011;15749;49.606;8.738;2022-09-09T13:35:30;0.60;;;0.47;;
28545;SDS011;15749;49.606;8.738;2022-09-09T13:38:18;1.87;;;0.60;;
28545;SDS011;15749;49.606;8.738;2022-09-09T13:41:11;2.87;;;0.73;;
28545;SDS011;15749;49.606;8.738;2022-09-09T13:44:14;2.13;;;0.97;;
28545;SDS011;15749;49.606;8.738;2022-09-09T13:47:17;3.17;;;1.33;;
28545;SDS011;15749;49.606;8.738;2022-09-09T13:50:21;2.90;;;0.70;;
28545;SDS011;15749;49.606;8.738;2022-09-09T13:53:12;1.53;;;0.90;;
28545;SDS011;15749;49.606;8.738;2022-09-09T13:55:59;0.53;;;0.30;;
28545;SDS011;15749;49.606;8.738;2022-09-09T13:58:47;1.80;;;0.70;;
28545;SDS011;15749;49.606;8.738;2022-09-09T14:01:35;2.80;;;0.70;;
28545;SDS011;15749;49.606;8.738;2022-09-09T14:04:23;2.97;;;0.80;;
28545;SDS011;15749;49.606;8.738;2022-09-09T14:07:11;1.20;;;0.63;;
28545;SDS011;15749;49.606;8.738;2022-09-09T14:10:02;1.87;;;1.10;;
28545;SDS011;15749;49.606;8.738;2022-09-09T14:12:50;3.63;;;1.00;;
28545;SDS011;15749;49.606;8.738;2022-09-09T14:15:38;1.37;;;0.70;;
28545;SDS011;15749;49.606;8.738;2022-09-09T14:18:25;2.30;;;0.70;;
28545;SDS011;15749;49.606;8.738;2022-09-09T14:21:12;4.83;;;0.97;;
28545;SDS011;15749;49.606;8.738;2022-09-09T14:24:01;2.00;;;0.70;;
28545;SDS011;15749;49.606;8.738;2022-09-09T14:26:50;1.30;;;0.73;;
28545;SDS011;15749;49.606;8.738;2022-09-09T14:29:38;1.87;;;0.80;;
28545;SDS011;15749;49.606;8.738;2022-09-09T14:32:25;1.50;;;0.73;;
28545;SDS011;15749;49.606;8.738;2022-09-09T14:35:13;1.47;;;0.60;;
28545;SDS011;15749;49.606;8.738;2022-09-09T14:38:02;2.10;;;0.60;;
28545;SDS011;15749;49.606;8.738;2022-09-09T14:40:50;1.53;;;0.60;;
28545;SDS011;15749;49.606;8.738;2022-09-09T14:43:39;1.97;;;0.60;;
28545;SDS011;15749;49.606;8.738;2022-09-09T14:46:27;1.27;;;0.63;;
28545;SDS011;15749;49.606;8.738;2022-09-09T14:49:14;1.77;;;0.80;;
28545;SDS011;15749;49.606;8.738;2022-09-09T14:52:02;1.63;;;0.60;;
28545;SDS011;15749;49.606;8.738;2022-09-09T14:54:51;1.10;;;0.70;;
28545;SDS011;15749;49.606;8.738;2022-09-09T14:57:39;1.00;;;0.67;;
28545;SDS011;15749;49.606;8.738;2022-09-09T15:00:28;1.93;;;0.60;;
28545;SDS011;15749;49.606;8.738;2022-09-09T15:03:16;1.70;;;0.60;;
28545;SDS011;15749;49.606;8.738;2022-09-09T15:06:06;3.40;;;0.70;;
28545;SDS011;15749;49.606;8.738;2022-09-09T15:08:56;1.53;;;0.47;;
28545;SDS011;15749;49.606;8.738;2022-09-09T15:11:44;2.40;;;0.90;;
28545;SDS011;15749;49.606;8.738;2022-09-09T15:14:31;3.17;;;0.80;;
28545;SDS011;15749;49.606;8.738;2022-09-09T15:17:21;1.27;;;0.60;;
28545;SDS011;15749;49.606;8.738;2022-09-09T15:20:12;1.50;;;0.70;;
28545;SDS011;15749;49.606;8.738;2022-09-09T15:23:02;1.33;;;0.70;;
28545;SDS011;15749;49.606;8.738;2022-09-09T15:25:51;2.63;;;0.60;;
28545;SDS011;15749;49.606;8.738;2022-09-09T15:28:41;1.73;;;0.40;;
28545;SDS011;15749;49.606;8.738;2022-09-09T15:31:30;1.40;;;0.40;;
28545;SDS011;15749;49.606;8.738;2022-09-09T15:34:20;1.80;;;0.50;;
28545;SDS011;15749;49.606;8.738;2022-09-09T15:37:09;2.20;;;0.57;;
28545;SDS011;15749;49.606;8.738;2022-09-09T15:39:58;2.07;;;0.70;;
28545;SDS011;15749;49.606;8.738;2022-09-09T15:42:46;1.30;;;0.50;;
28545;SDS011;15749;49.606;8.738;2022-09-09T15:45:34;0.60;;;0.50;;
28545;SDS011;15749;49.606;8.738;2022-09-09T15:48:22;1.50;;;0.60;;
28545;SDS011;15749;49.606;8.738;2022-09-09T15:51:20;1.63;;;0.50;;
28545;SDS011;15749;49.606;8.738;2022-09-09T15:54:27;0.50;;;0.30;;
28545;SDS011;15749;49.606;8.738;2022-09-09T15:57:14;1.43;;;0.43;;
28545;SDS011;15749;49.606;8.738;2022-09-09T16:00:02;0.70;;;0.30;;
28545;SDS011;15749;49.606;8.738;2022-09-09T16:02:52;1.40;;;0.50;;
28545;SDS011;15749;49.606;8.738;2022-09-09T16:05:39;1.57;;;0.70;;
28545;SDS011;15749;49.606;8.738;2022-09-09T16:08:32;1.33;;;0.47;;
28545;SDS011;15749;49.606;8.738;2022-09-09T16:11:21;2.80;;;0.90;;
28545;SDS011;15749;49.606;8.738;2022-09-09T16:14:10;1.07;;;0.50;;
28545;SDS011;15749;49.606;8.738;2022-09-09T16:16:57;0.93;;;0.50;;
28545;SDS011;15749;49.606;8.738;2022-09-09T16:19:44;1.03;;;0.50;;
28545;SDS011;15749;49.606;8.738;2022-09-09T16:22:32;0.50;;;0.40;;
28545;SDS011;15749;49.606;8.738;2022-09-09T16:25:21;1.13;;;0.47;;
28545;SDS011;15749;49.606;8.738;2022-09-09T16:28:08;1.93;;;0.50;;
28545;SDS011;15749;49.606;8.738;2022-09-09T16:30:56;1.10;;;0.60;;
28545;SDS011;15749;49.606;8.738;2022-09-09T16:33:44;0.50;;;0.30;;
28545;SDS011;15749;49.606;8.738;2022-09-09T16:36:33;1.40;;;0.33;;
28545;SDS011;15749;49.606;8.738;2022-09-09T16:39:24;0.70;;;0.40;;
28545;SDS011;15749;49.606;8.738;2022-09-09T16:42:12;0.90;;;0.50;;
28545;SDS011;15749;49.606;8.738;2022-09-09T16:45:02;1.10;;;0.40;;
28545;SDS011;15749;49.606;8.738;2022-09-09T16:47:52;0.60;;;0.30;;
28545;SDS011;15749;49.606;8.738;2022-09-09T16:50:40;0.73;;;0.30;;
28545;SDS011;15749;49.606;8.738;2022-09-09T16:53:27;0.67;;;0.33;;
28545;SDS011;15749;49.606;8.738;2022-09-09T16:56:16;0.53;;;0.40;;
28545;SDS011;15749;49.606;8.738;2022-09-09T16:59:07;1.50;;;0.60;;
28545;SDS011;15749;49.606;8.738;2022-09-09T17:01:57;1.60;;;0.40;;
28545;SDS011;15749;49.606;8.738;2022-09-09T17:04:46;0.53;;;0.40;;
28545;SDS011;15749;49.606;8.738;2022-09-09T17:07:34;0.90;;;0.47;;
28545;SDS011;15749;49.606;8.738;2022-09-09T17:10:21;1.73;;;0.40;;
28545;SDS011;15749;49.606;8.738;2022-09-09T17:13:08;1.43;;;0.40;;
28545;SDS011;15749;49.606;8.738;2022-09-09T17:15:58;0.70;;;0.30;;
28545;SDS011;15749;49.606;8.738;2022-09-09T17:18:50;1.07;;;0.40;;
28545;SDS011;15749;49.606;8.738;2022-09-09T17:21:39;1.43;;;0.40;;
28545;SDS011;15749;49.606;8.738;2022-09-09T17:24:47;0.40;;;0.23;;
28545;SDS011;15749;49.606;8.738;2022-09-09T17:27:35;0.73;;;0.30;;